Saskatoon John G. Diefenbaker International Airport
CYXE : now visible

Airfield :











YOU CAN JOIN US ON...

 
LOGIN :

Register | Disclaimer

   EN    FR    IT 

 









Legend :    VFR   Marginal VFR   IFR   Intensive IFR   Very Intensive IFR
Visi :
Ceiling :
>= 8 km
>= 3000ft
5 to 8 km
1000 to 3000 ft
1500m to 5 km
500 to 1000 ft
800 to 1500m
200 to 500 ft
< 800m
< 200 ft
Symbols :   Thunderstorms  Fog  Heavy snow  Heavy precipitations  Wind > 20 kt






- Airport Elevation : 1653 ft
- IATA code : YXE


CYXE - Saskatoon John G. Diefenbaker International

CURRENT METAR :
  • 191800Z 19012KT 15SM FEW160 BKN300 M07/M10 A2996 RMK AC2CI4 PRESFR SLP183

EXPIRED METARs :
  • 191700Z 19010KT 15SM DRSN FEW008 SCT160 BKN300 M08/M11 A3002 RMK SF1AC3CI2 SLP204
  • 191600Z 19013KT 15SM DRSN SCT008 BKN180 BKN260 M09/M12 A3006 RMK SC3AC2CI2 PRESFR SLP218
  • 191548Z 18014KT 15SM DRSN SCT009 BKN022 OVC300 M10/M12 A3007 RMK SC3SC2CI3 PRESFR SLP222

TAF TAF CYXE
Valid from the 19 at 18:00 until the 20 at 18:00 UTC


191745Z 1918/2018 19010KT P6SM SCT160
BECMG 1918/1920 20015G25KT
FM192100 21015KT P6SM SCT140 BKN200
FM192300 21015G25KT P6SM BKN080
TEMPO 2001/2005 P6SM -SHRA
BECMG 2001/2003 24018G28KT
FM200600 25018G28KT P6SM SCT080
FM200800 30025G40KT P6SM SCT020
TEMPO 2008/2011 BKN020
FM201100 30030G40KT P6SM SCT020 BKN070
TEMPO 2011/2014 3SM -SN BKN020
FM201400 30025G35KT P6SM FEW030 RMK NXT FCST BY 200000Z
CZWG FIR / North America



MET'MAP, your aeronautical weather chart ! - Copyright ORBIFLY December 2007 - Disclaimer

ORBIFLY MET'MAP TEAM :

Programming & Development : Alexandra Zaïnal
Concept & original design : Baudouin d'Aumeries
Assistance for programming : Marc-Olivier Méhu
Technical & hardware support : Manuel Goepfert

Contact : metmap@orbifly.com




SOURCES & CREDITS :

   NOAA       Earth
Advisory